Time;durP1;ratioP1;P1;durP2;ratioP2;P2;SDS_P1;SDS_P2;PMS_P1;PMS_P2;Temp;Humidity;BMP_temperature;BMP_pressure;BME280_temperature;BME280_humidity;BME280_pressure;Samples;Min_cycle;Max_cycle;Signal;HPM_P1;HPM_P2
2022/04/16 00:03:43;;;;;;;;;;;7.50;99.90;;;;;;10311522;28;86017;-48
2022/04/16 00:08:44;;;;;;;;;;;7.50;99.90;;;;;;10327408;28;85860;-45
2022/04/16 00:13:46;;;;;;;;;;;7.50;99.90;;;;;;10329807;28;84906;-46
2022/04/16 00:18:47;;;;;;;;;;;7.50;99.90;;;;;;10311056;28;84217;-50
2022/04/16 00:23:48;;;;;;;;;;;7.40;99.90;;;;;;10329056;28;84223;-47
2022/04/16 00:28:50;;;;;;;;;;;7.40;99.90;;;;;;10327715;28;85912;-47
2022/04/16 00:33:50;;;;;;;;;;;7.30;99.90;;;;;;10329662;28;85002;-46
2022/04/16 00:38:51;;;;;;;;;;;7.30;99.90;;;;;;10328412;28;85088;-46
2022/04/16 00:43:52;;;;;;;;;;;7.20;99.90;;;;;;10328243;28;87104;-49
2022/04/16 00:48:53;;;;;;;;;;;7.30;99.90;;;;;;10328164;28;85281;-46
2022/04/16 00:53:54;;;;;;;;;;;7.30;99.90;;;;;;10328387;28;86304;-48
2022/04/16 00:58:55;;;;;;;;;;;7.40;99.90;;;;;;10327610;28;84884;-48
2022/04/16 01:03:56;;;;;;;;;;;7.40;99.90;;;;;;10325953;28;84039;-46
2022/04/16 01:08:56;;;;;;;;;;;7.40;99.90;;;;;;10327562;28;84934;-46
2022/04/16 01:13:57;;;;;;;;;;;7.40;99.90;;;;;;10326721;28;84782;-49
2022/04/16 01:18:57;;;;;;;;;;;7.50;99.90;;;;;;10327349;28;84766;-47
2022/04/16 01:23:58;;;;;;;;;;;7.50;99.90;;;;;;10327027;28;84817;-51
2022/04/16 01:28:59;;;;;;;;;;;7.50;99.90;;;;;;10327652;28;84236;-49
2022/04/16 01:34:01;;;;;;;;;;;7.50;99.90;;;;;;10327391;28;84916;-50
2022/04/16 01:39:01;;;;;;;;;;;7.50;99.90;;;;;;10326827;28;84113;-45
2022/04/16 01:44:02;;;;;;;;;;;7.50;99.90;;;;;;10325912;28;87324;-49
2022/04/16 01:49:02;;;;;;;;;;;7.50;99.90;;;;;;10326742;28;84083;-44
2022/04/16 01:54:03;;;;;;;;;;;7.50;99.90;;;;;;10327410;28;84533;-48
2022/04/16 01:59:04;;;;;;;;;;;7.40;99.90;;;;;;10327094;28;85043;-46
2022/04/16 02:04:04;;;;;;;;;;;7.40;99.90;;;;;;10326398;28;84895;-46
2022/04/16 02:09:05;;;;;;;;;;;7.40;99.90;;;;;;10327631;28;84492;-46
2022/04/16 02:14:05;;;;;;;;;;;7.40;99.90;;;;;;10328244;28;89148;-45
2022/04/16 02:19:06;;;;;;;;;;;7.40;99.90;;;;;;10327040;28;84440;-46
2022/04/16 02:24:07;;;;;;;;;;;7.40;99.90;;;;;;10344278;22;85904;-50
2022/04/16 02:29:11;;;;;;;;;;;7.30;99.90;;;;;;10365836;28;84316;-47
2022/04/16 02:34:11;;;;;;;;;;;7.30;99.90;;;;;;10356680;28;84883;-50
2022/04/16 02:39:12;;;;;;;;;;;7.40;99.90;;;;;;10325930;28;85365;-49
2022/04/16 02:49:33;;;;;;;;;;;7.50;99.90;;;;;;10366777;28;85059;-47
2022/04/16 02:54:35;;;;;;;;;;;7.50;99.90;;;;;;10367528;28;84082;-50
2022/04/16 02:59:35;;;;;;;;;;;7.50;99.90;;;;;;10367282;28;84061;-47
2022/04/16 03:04:36;;;;;;;;;;;7.50;99.90;;;;;;10367423;28;84882;-49
2022/04/16 03:09:36;;;;;;;;;;;7.60;99.90;;;;;;10348465;28;84966;-45
2022/04/16 03:19:56;;;;;;;;;;;7.50;99.90;;;;;;10358424;28;84801;-49
2022/04/16 03:24:57;;;;;;;;;;;7.40;99.90;;;;;;10366788;28;85089;-48
2022/04/16 03:29:57;;;;;;;;;;;7.40;99.90;;;;;;10366513;28;84938;-44
2022/04/16 03:34:58;;;;;;;;;;;7.40;99.90;;;;;;10366747;28;84964;-44
2022/04/16 03:39:58;;;;;;;;;;;7.40;99.90;;;;;;10371173;28;84150;-50
2022/04/16 03:45:00;;;;;;;;;;;7.40;99.90;;;;;;10373486;28;84202;-47
2022/04/16 03:50:00;;;;;;;;;;;7.40;99.90;;;;;;10372641;28;84061;-44
2022/04/16 04:00:20;;;;;;;;;;;7.40;99.90;;;;;;10372747;28;84092;-46
2022/04/16 04:05:21;;;;;;;;;;;7.30;99.90;;;;;;10372144;28;84906;-48
2022/04/16 04:10:21;;;;;;;;;;;7.30;99.90;;;;;;10353576;28;85997;-46
2022/04/16 04:15:23;;;;;;;;;;;7.30;99.90;;;;;;10373114;28;84095;-45
2022/04/16 04:20:24;;;;;;;;;;;7.30;99.90;;;;;;10376105;28;84066;-46
2022/04/16 04:25:25;;;;;;;;;;;7.20;99.90;;;;;;10353580;28;84868;-51
2022/04/16 04:30:25;;;;;;;;;;;7.20;99.90;;;;;;10372548;28;84017;-46
2022/04/16 04:35:26;;;;;;;;;;;7.20;99.90;;;;;;10372143;28;85017;-47
2022/04/16 04:40:29;;;;;;;;;;;7.20;99.90;;;;;;10372197;28;84961;-46
2022/04/16 04:45:29;;;;;;;;;;;7.20;99.90;;;;;;10353338;28;85098;-46
2022/04/16 04:50:30;;;;;;;;;;;7.10;99.90;;;;;;10371865;28;84334;-50
2022/04/16 04:55:30;;;;;;;;;;;7.20;99.90;;;;;;10370051;28;84953;-51
2022/04/16 05:00:31;;;;;;;;;;;7.20;99.90;;;;;;10370963;28;85570;-46
2022/04/16 05:05:31;;;;;;;;;;;7.30;99.90;;;;;;10369971;28;84099;-45
2022/04/16 05:10:32;;;;;;;;;;;7.30;99.90;;;;;;10352057;28;90641;-49
2022/04/16 05:15:32;;;;;;;;;;;7.30;99.90;;;;;;10369261;28;84934;-46
2022/04/16 05:20:33;;;;;;;;;;;7.30;99.90;;;;;;10370367;28;84993;-45
2022/04/16 05:25:33;;;;;;;;;;;7.30;99.90;;;;;;10369206;28;84947;-44
2022/04/16 05:30:38;;;;;;;;;;;7.30;99.90;;;;;;10368809;28;84080;-50
2022/04/16 05:35:39;;;;;;;;;;;7.40;99.90;;;;;;10367678;28;84788;-49
2022/04/16 05:40:39;;;;;;;;;;;7.50;99.90;;;;;;10350653;28;85965;-45
2022/04/16 05:45:40;;;;;;;;;;;7.60;99.90;;;;;;10367987;28;84189;-49
2022/04/16 05:50:40;;;;;;;;;;;7.70;99.90;;;;;;10368481;28;85075;-47
2022/04/16 05:55:45;;;;;;;;;;;7.80;99.90;;;;;;10366549;28;84317;-46
2022/04/16 06:00:46;;;;;;;;;;;7.90;99.90;;;;;;10367351;28;84938;-52
2022/04/16 06:05:47;;;;;;;;;;;8.00;99.90;;;;;;10367533;28;84105;-48
2022/04/16 06:10:47;;;;;;;;;;;8.20;99.90;;;;;;10367208;28;84914;-45
2022/04/16 06:15:48;;;;;;;;;;;8.30;99.90;;;;;;10367198;28;85071;-45
2022/04/16 06:20:48;;;;;;;;;;;8.40;99.90;;;;;;10368018;28;87604;-44
2022/04/16 06:25:49;;;;;;;;;;;8.60;99.90;;;;;;10366465;28;84956;-50
2022/04/16 06:30:49;;;;;;;;;;;8.90;99.90;;;;;;10366911;28;84946;-47
2022/04/16 06:35:50;;;;;;;;;;;9.20;99.90;;;;;;10365995;28;85136;-46
2022/04/16 06:40:51;;;;;;;;;;;9.60;99.90;;;;;;10367310;28;84955;-46
2022/04/16 06:45:52;;;;;;;;;;;9.90;42.00;;;;;;10347202;28;91112;-45
2022/04/16 06:50:52;;;;;;;;;;;10.40;1.00;;;;;;10332429;28;85906;-50
2022/04/16 06:55:53;;;;;;;;;;;10.50;1.00;;;;;;10366245;28;84150;-49
2022/04/16 07:00:54;;;;;;;;;;;10.90;1.00;;;;;;10366559;28;84847;-51
2022/04/16 07:05:54;;;;;;;;;;;11.40;1.00;;;;;;10366077;28;84896;-51
2022/04/16 07:10:55;;;;;;;;;;;11.80;1.00;;;;;;10365385;28;85003;-48
2022/04/16 07:15:55;;;;;;;;;;;11.70;99.90;;;;;;10370974;28;86567;-52
2022/04/16 07:20:56;;;;;;;;;;;12.30;99.90;;;;;;10356063;28;84406;-49
2022/04/16 07:25:56;;;;;;;;;;;12.50;99.90;;;;;;10371863;28;84795;-49
2022/04/16 07:30:57;;;;;;;;;;;12.90;1.00;;;;;;10373742;28;84942;-47
2022/04/16 07:35:57;;;;;;;;;;;13.20;1.00;;;;;;10372426;28;84934;-47
2022/04/16 07:40:58;;;;;;;;;;;13.40;1.00;;;;;;10372875;28;84236;-45
2022/04/16 07:45:58;;;;;;;;;;;13.60;1.00;;;;;;10372362;28;84080;-47
2022/04/16 07:50:59;;;;;;;;;;;14.10;99.90;;;;;;10372639;28;86868;-49
2022/04/16 07:55:59;;;;;;;;;;;14.00;1.00;;;;;;10371546;28;84892;-51
2022/04/16 08:01:00;;;;;;;;;;;14.10;99.90;;;;;;10373362;28;84940;-50
2022/04/16 08:06:01;;;;;;;;;;;14.60;1.00;;;;;;10371367;28;90039;-47
2022/04/16 08:11:01;;;;;;;;;;;14.70;99.90;;;;;;10371837;28;84211;-49
2022/04/16 08:16:02;;;;;;;;;;;15.00;99.90;;;;;;10370981;28;84811;-47
2022/04/16 08:21:02;;;;;;;;;;;15.50;1.00;;;;;;10372017;28;84863;-51
2022/04/16 08:26:03;;;;;;;;;;;15.60;1.00;;;;;;10402761;22;85337;-58
2022/04/16 08:31:04;;;;;;;;;;;15.50;1.00;;;;;;10355374;28;86950;-59
2022/04/16 08:36:04;;;;;;;;;;;15.70;1.00;;;;;;10356778;28;85477;-57
2022/04/16 08:41:05;;;;;;;;;;;16.50;1.00;;;;;;10372546;28;84107;-58
2022/04/16 08:46:06;;;;;;;;;;;16.60;99.90;;;;;;10371931;28;84725;-56
2022/04/16 08:51:07;;;;;;;;;;;17.30;1.00;;;;;;10354739;28;84088;-58
2022/04/16 08:56:07;;;;;;;;;;;17.60;1.00;;;;;;10371758;28;84909;-56
2022/04/16 09:01:08;;;;;;;;;;;18.00;1.00;;;;;;10373266;28;84821;-55
2022/04/16 09:06:09;;;;;;;;;;;18.40;99.90;;;;;;10372520;28;84318;-58
2022/04/16 09:11:11;;;;;;;;;;;18.30;99.90;;;;;;10354497;28;84104;-61
2022/04/16 09:16:12;;;;;;;;;;;18.70;99.90;;;;;;10371177;28;84712;-58
2022/04/16 09:21:16;;;;;;;;;;;18.00;99.90;;;;;;10372929;28;84100;-58
2022/04/16 09:26:32;;;;;;;;;;;18.40;99.90;;;;;;10370283;28;84019;-57
2022/04/16 09:31:34;;;;;;;;;;;18.00;99.90;;;;;;10371538;28;85717;-58
2022/04/16 09:36:38;;;;;;;;;;;18.80;48.40;;;;;;10369580;28;84929;-57
2022/04/16 09:41:44;;;;;;;;;;;18.90;28.80;;;;;;10371275;28;85338;-58
2022/04/16 09:46:47;;;;;;;;;;;19.50;1.00;;;;;;10369327;28;84829;-57
2022/04/16 09:51:49;;;;;;;;;;;19.00;1.00;;;;;;10370448;28;84101;-57
2022/04/16 09:56:50;;;;;;;;;;;19.30;1.00;;;;;;10369540;28;83989;-58
2022/04/16 10:01:51;;;;;;;;;;;19.40;1.00;;;;;;10371195;28;84953;-58
2022/04/16 10:06:52;;;;;;;;;;;20.30;1.00;;;;;;10369575;28;84524;-57
2022/04/16 10:17:18;;;;;;;;;;;20.10;1.00;;;;;;10351495;28;84961;-56
2022/04/16 10:22:23;;;;;;;;;;;20.50;1.00;;;;;;10352736;28;86811;-58
2022/04/16 10:27:27;;;;;;;;;;;20.20;1.00;;;;;;10369624;28;84222;-56
2022/04/16 10:32:41;;;;;;;;;;;20.40;1.00;;;;;;10353035;28;85072;-58
2022/04/16 10:37:42;;;;;;;;;;;20.00;1.00;;;;;;10352161;28;84842;-57
2022/04/16 10:42:47;;;;;;;;;;;20.00;1.00;;;;;;10372444;28;84231;-58
2022/04/16 10:47:50;;;;;;;;;;;19.80;1.00;;;;;;10356642;28;86165;-58
2022/04/16 10:52:53;;;;;;;;;;;20.10;1.00;;;;;;10380502;28;84081;-59
2022/04/16 10:57:58;;;;;;;;;;;20.40;1.00;;;;;;10379905;28;85627;-59
2022/04/16 11:03:08;;;;;;;;;;;21.00;1.00;;;;;;10361592;28;86002;-56
2022/04/16 11:08:12;;;;;;;;;;;20.80;1.00;;;;;;10377468;28;84935;-57
2022/04/16 11:13:13;;;;;;;;;;;20.80;1.00;;;;;;10377342;28;84873;-57
2022/04/16 11:18:15;;;;;;;;;;;20.50;1.00;;;;;;10377761;28;84975;-58
2022/04/16 11:23:16;;;;;;;;;;;21.30;1.00;;;;;;10377839;28;84280;-57
2022/04/16 11:39:03;;;;;;;;;;;20.00;1.00;;;;;;10359995;28;86202;-58
2022/04/16 11:44:04;;;;;;;;;;;20.70;99.90;;;;;;10362187;28;85339;-59
2022/04/16 11:49:05;;;;;;;;;;;20.90;99.90;;;;;;10377252;28;84489;-57
2022/04/16 11:54:06;;;;;;;;;;;21.00;19.70;;;;;;10379321;28;84904;-56
2022/04/16 11:59:07;;;;;;;;;;;21.30;23.90;;;;;;10374348;28;84065;-58
2022/04/16 12:04:07;;;;;;;;;;;21.10;1.00;;;;;;10357308;28;87003;-57
2022/04/16 12:09:11;;;;;;;;;;;20.80;1.00;;;;;;10356009;28;86116;-59
2022/04/16 12:14:16;;;;;;;;;;;21.50;1.00;;;;;;10375080;28;84182;-58
2022/04/16 12:19:17;;;;;;;;;;;20.90;1.00;;;;;;10374119;28;84178;-58
2022/04/16 12:24:24;;;;;;;;;;;20.30;1.00;;;;;;10373686;28;84921;-57
2022/04/16 12:29:26;;;;;;;;;;;21.00;1.00;;;;;;10355137;28;85890;-57
2022/04/16 12:34:27;;;;;;;;;;;20.90;1.00;;;;;;10373365;28;84011;-58
2022/04/16 12:39:29;;;;;;;;;;;21.70;99.90;;;;;;10372878;28;84085;-60
2022/04/16 12:44:29;;;;;;;;;;;21.80;47.80;;;;;;10355851;28;84045;-59
2022/04/16 12:49:33;;;;;;;;;;;21.40;37.70;;;;;;10373237;28;93339;-60
2022/04/16 12:54:35;;;;;;;;;;;21.90;59.00;;;;;;10341683;28;84819;-59
2022/04/16 12:59:36;;;;;;;;;;;21.70;60.20;;;;;;10372754;28;84901;-61
2022/04/16 13:04:37;;;;;;;;;;;21.50;99.90;;;;;;10355186;28;84161;-59
2022/04/16 13:09:38;;;;;;;;;;;21.30;79.60;;;;;;10374154;28;84053;-58
2022/04/16 13:14:39;;;;;;;;;;;21.80;99.90;;;;;;10371148;28;84186;-57
2022/04/16 13:19:40;;;;;;;;;;;22.60;99.90;;;;;;10372680;28;84393;-58
2022/04/16 13:24:41;;;;;;;;;;;22.30;92.20;;;;;;10372586;28;84238;-58
2022/04/16 13:29:42;;;;;;;;;;;22.60;25.10;;;;;;10371776;28;84732;-57
2022/04/16 13:34:45;;;;;;;;;;;21.20;1.00;;;;;;10372117;28;84400;-59
2022/04/16 13:45:05;;;;;;;;;;;22.50;1.00;;;;;;10371258;28;84306;-59
2022/04/16 13:50:06;;;;;;;;;;;22.20;1.00;;;;;;10371962;28;84388;-58
2022/04/16 13:55:08;;;;;;;;;;;21.30;1.00;;;;;;10371013;28;84689;-59
2022/04/16 14:00:09;;;;;;;;;;;21.70;1.00;;;;;;10371145;28;84167;-58
2022/04/16 14:10:32;;;;;;;;;;;22.20;8.90;;;;;;10371784;28;84273;-57
2022/04/16 14:15:32;;;;;;;;;;;22.30;4.00;;;;;;10370059;28;84966;-58
2022/04/16 14:20:35;;;;;;;;;;;21.90;1.00;;;;;;10353327;28;85179;-59
2022/04/16 14:25:35;;;;;;;;;;;22.20;1.00;;;;;;10366713;22;86415;-46
2022/04/16 14:30:37;;;;;;;;;;;21.00;1.00;;;;;;10409237;28;86109;-46
2022/04/16 14:35:39;;;;;;;;;;;20.50;1.00;;;;;;10408409;28;84706;-47
2022/04/16 14:40:42;;;;;;;;;;;19.90;1.00;;;;;;10391233;28;84703;-48
2022/04/16 14:45:44;;;;;;;;;;;19.50;1.00;;;;;;10406985;28;84897;-45
2022/04/16 14:50:45;;;;;;;;;;;18.90;1.00;;;;;;10408938;28;84740;-44
2022/04/16 14:55:45;;;;;;;;;;;18.30;1.00;;;;;;10407524;28;90598;-48
2022/04/16 15:00:46;;;;;;;;;;;17.20;1.00;;;;;;10408471;28;84091;-49
2022/04/16 15:05:46;;;;;;;;;;;16.90;1.00;;;;;;10407781;28;84141;-46
2022/04/16 15:10:47;;;;;;;;;;;16.70;1.00;;;;;;10408322;28;84867;-49
2022/04/16 15:15:47;;;;;;;;;;;16.50;1.00;;;;;;10388742;28;84980;-45
2022/04/16 15:20:48;;;;;;;;;;;16.60;1.00;;;;;;10407776;28;84023;-46
2022/04/16 15:25:49;;;;;;;;;;;16.50;1.00;;;;;;10406480;28;84254;-46
2022/04/16 15:30:50;;;;;;;;;;;16.30;1.00;;;;;;10389276;28;86874;-47
2022/04/16 15:35:51;;;;;;;;;;;16.00;1.00;;;;;;10411832;28;84160;-45
2022/04/16 15:40:56;;;;;;;;;;;15.90;1.00;;;;;;10415754;28;84140;-46
2022/04/16 15:45:57;;;;;;;;;;;15.80;1.00;;;;;;10413507;28;84206;-46
2022/04/16 15:50:57;;;;;;;;;;;15.60;1.00;;;;;;10396389;28;85042;-47
2022/04/16 15:55:58;;;;;;;;;;;15.60;1.00;;;;;;10413341;28;85563;-47
2022/04/16 16:00:59;;;;;;;;;;;15.50;1.00;;;;;;10404852;28;84302;-48
2022/04/16 16:06:00;;;;;;;;;;;15.50;1.00;;;;;;10405563;28;84213;-46
2022/04/16 16:11:01;;;;;;;;;;;15.30;1.00;;;;;;10385269;28;84677;-51
2022/04/16 16:16:01;;;;;;;;;;;15.20;1.00;;;;;;10404603;28;84956;-52
2022/04/16 16:21:02;;;;;;;;;;;15.10;1.00;;;;;;10386706;28;85230;-52
2022/04/16 16:26:03;;;;;;;;;;;15.10;1.00;;;;;;10411174;28;84526;-48
2022/04/16 16:31:03;;;;;;;;;;;15.10;1.00;;;;;;10412587;28;84975;-49
2022/04/16 16:36:04;;;;;;;;;;;15.10;1.00;;;;;;10411544;28;84130;-50
2022/04/16 16:41:07;;;;;;;;;;;14.90;1.00;;;;;;10410728;28;84410;-48
2022/04/16 16:46:08;;;;;;;;;;;14.80;1.00;;;;;;10408210;28;84108;-47
2022/04/16 16:51:08;;;;;;;;;;;14.80;1.00;;;;;;10412252;28;84154;-47
2022/04/16 16:56:09;;;;;;;;;;;14.60;1.00;;;;;;10408955;28;87115;-46
2022/04/16 17:01:09;;;;;;;;;;;14.50;1.00;;;;;;10406409;28;84821;-50
2022/04/16 17:06:10;;;;;;;;;;;14.40;99.90;;;;;;10401815;28;84070;-51
2022/04/16 17:11:11;;;;;;;;;;;14.40;99.90;;;;;;10411983;28;84038;-47
2022/04/16 17:21:30;;;;;;;;;;;14.30;99.90;;;;;;10411295;28;84340;-50
2022/04/16 17:26:31;;;;;;;;;;;14.30;99.90;;;;;;10397618;28;84185;-49
2022/04/16 17:31:31;;;;;;;;;;;14.20;99.90;;;;;;10409865;28;85710;-47
2022/04/16 17:36:32;;;;;;;;;;;14.10;99.90;;;;;;10395840;28;84951;-49
2022/04/16 17:41:32;;;;;;;;;;;14.00;99.90;;;;;;10409578;28;84878;-46
2022/04/16 17:46:33;;;;;;;;;;;13.90;1.00;;;;;;10395258;28;84215;-49
2022/04/16 17:51:33;;;;;;;;;;;13.80;1.00;;;;;;10370311;28;84789;-50
2022/04/16 17:56:34;;;;;;;;;;;13.80;1.00;;;;;;10367720;28;84407;-52
2022/04/16 18:01:34;;;;;;;;;;;13.70;1.00;;;;;;10389693;28;84197;-50
2022/04/16 18:06:36;;;;;;;;;;;13.60;1.00;;;;;;10408585;28;84157;-49
2022/04/16 18:11:36;;;;;;;;;;;13.50;1.00;;;;;;10403982;28;85477;-51
2022/04/16 18:16:37;;;;;;;;;;;13.40;1.00;;;;;;10395678;28;84946;-50
2022/04/16 18:21:38;;;;;;;;;;;13.20;1.00;;;;;;10407819;28;84168;-50
2022/04/16 18:26:38;;;;;;;;;;;13.10;1.00;;;;;;10362657;28;84829;-50
2022/04/16 18:31:39;;;;;;;;;;;13.00;1.00;;;;;;10370483;28;84693;-50
2022/04/16 18:36:41;;;;;;;;;;;12.90;1.00;;;;;;10366408;28;84734;-51
2022/04/16 18:41:43;;;;;;;;;;;12.80;1.00;;;;;;10370727;28;85296;-45
2022/04/16 18:46:46;;;;;;;;;;;12.70;1.00;;;;;;10367665;28;84250;-46
2022/04/16 18:51:47;;;;;;;;;;;12.60;1.00;;;;;;10381611;28;84316;-48
2022/04/16 18:56:47;;;;;;;;;;;12.50;1.00;;;;;;10386219;28;84267;-49
2022/04/16 19:07:07;;;;;;;;;;;12.30;1.00;;;;;;10408315;28;84155;-50
2022/04/16 19:12:12;;;;;;;;;;;12.10;99.90;;;;;;10415333;28;84071;-52
2022/04/16 19:17:13;;;;;;;;;;;12.00;99.90;;;;;;10413246;28;84200;-54
2022/04/16 19:22:20;;;;;;;;;;;11.90;1.00;;;;;;10396518;28;85772;-51
2022/04/16 19:27:20;;;;;;;;;;;11.80;1.00;;;;;;10385920;28;84643;-50
2022/04/16 19:32:21;;;;;;;;;;;11.70;1.00;;;;;;10383357;28;84465;-51
2022/04/16 19:37:21;;;;;;;;;;;11.60;1.00;;;;;;10378506;28;84171;-53
2022/04/16 19:42:22;;;;;;;;;;;11.50;1.00;;;;;;10405452;28;86900;-52
2022/04/16 19:47:22;;;;;;;;;;;11.40;1.00;;;;;;10405591;28;84299;-52
2022/04/16 19:52:23;;;;;;;;;;;11.20;1.00;;;;;;10411731;28;84340;-49
2022/04/16 19:57:23;;;;;;;;;;;11.20;1.00;;;;;;10413039;28;84861;-51
2022/04/16 20:02:24;;;;;;;;;;;11.00;1.00;;;;;;10413983;28;85024;-51
2022/04/16 20:07:24;;;;;;;;;;;11.00;1.00;;;;;;10394515;28;85387;-51
2022/04/16 20:12:26;;;;;;;;;;;10.90;1.00;;;;;;10410587;28;86119;-49
2022/04/16 20:17:27;;;;;;;;;;;10.80;30.40;;;;;;10410776;28;84185;-51
2022/04/16 20:22:28;;;;;;;;;;;10.70;99.90;;;;;;10412470;28;85369;-50
2022/04/16 20:27:28;;;;;;;;;;;10.60;99.90;;;;;;10405389;22;84945;-57
2022/04/16 20:32:29;;;;;;;;;;;10.50;1.00;;;;;;10355799;28;84733;-57
2022/04/16 20:37:30;;;;;;;;;;;10.40;1.00;;;;;;10354381;28;84342;-58
2022/04/16 20:47:53;;;;;;;;;;;10.40;1.00;;;;;;10368952;28;87025;-59
2022/04/16 20:58:13;;;;;;;;;;;10.30;1.00;;;;;;10369970;28;84808;-59
2022/04/16 21:03:13;;;;;;;;;;;10.10;1.00;;;;;;10371235;28;84924;-60
2022/04/16 21:08:14;;;;;;;;;;;9.90;1.00;;;;;;10373052;28;84947;-61
2022/04/16 21:13:15;;;;;;;;;;;9.90;49.50;;;;;;10380401;28;84902;-61
2022/04/16 21:18:16;;;;;;;;;;;9.80;99.90;;;;;;10383254;28;84269;-60
2022/04/16 21:23:16;;;;;;;;;;;9.80;99.90;;;;;;10374039;28;85308;-57
2022/04/16 21:28:17;;;;;;;;;;;9.80;93.40;;;;;;10370004;28;84296;-60
2022/04/16 21:33:17;;;;;;;;;;;9.70;21.10;;;;;;10370567;28;84110;-61
2022/04/16 21:38:18;;;;;;;;;;;9.60;43.80;;;;;;10352574;28;85596;-59
2022/04/16 21:43:19;;;;;;;;;;;9.60;1.00;;;;;;10370438;28;84022;-56
2022/04/16 21:48:19;;;;;;;;;;;9.60;1.00;;;;;;10352824;28;84053;-60
2022/04/16 21:53:20;;;;;;;;;;;9.50;29.60;;;;;;10370478;28;84411;-60
2022/04/16 21:58:21;;;;;;;;;;;9.50;3.40;;;;;;10351215;28;85694;-59
2022/04/16 22:03:21;;;;;;;;;;;9.30;33.20;;;;;;10369542;28;84290;-61
2022/04/16 22:08:22;;;;;;;;;;;9.30;99.90;;;;;;10374907;28;84196;-60
2022/04/16 22:13:23;;;;;;;;;;;9.30;99.90;;;;;;10374771;28;85438;-59
2022/04/16 22:18:23;;;;;;;;;;;9.20;99.90;;;;;;10353894;28;86766;-59
2022/04/16 22:23:26;;;;;;;;;;;9.10;99.90;;;;;;10338193;28;84517;-60
2022/04/16 22:28:26;;;;;;;;;;;9.10;99.90;;;;;;10369439;28;84072;-59
2022/04/16 22:33:27;;;;;;;;;;;9.00;99.90;;;;;;10370605;28;84937;-59
2022/04/16 22:43:47;;;;;;;;;;;9.00;99.90;;;;;;10373851;28;84128;-60
2022/04/16 22:48:47;;;;;;;;;;;8.90;1.00;;;;;;10358527;28;86617;-60
2022/04/16 22:53:50;;;;;;;;;;;8.90;1.00;;;;;;10377426;28;84012;-65
2022/04/16 22:58:51;;;;;;;;;;;8.80;1.00;;;;;;10358087;28;85678;-60
2022/04/16 23:03:52;;;;;;;;;;;8.70;1.00;;;;;;10376711;28;84666;-60
2022/04/16 23:08:52;;;;;;;;;;;8.60;1.00;;;;;;10358082;28;84865;-60
2022/04/16 23:13:53;;;;;;;;;;;8.60;1.00;;;;;;10376385;28;84785;-61
2022/04/16 23:18:53;;;;;;;;;;;8.50;1.00;;;;;;10375334;28;85124;-61
2022/04/16 23:23:54;;;;;;;;;;;8.40;77.30;;;;;;10376241;28;84699;-60
2022/04/16 23:28:55;;;;;;;;;;;8.40;99.90;;;;;;10374550;28;84306;-60
2022/04/16 23:33:56;;;;;;;;;;;8.30;1.00;;;;;;10340990;28;84254;-60
2022/04/16 23:38:56;;;;;;;;;;;8.20;1.00;;;;;;10375148;28;84881;-57
2022/04/16 23:49:18;;;;;;;;;;;8.10;99.90;;;;;;10375658;28;84114;-60
2022/04/16 23:54:20;;;;;;;;;;;8.00;99.90;;;;;;10379915;28;84043;-60
2022/04/16 23:59:21;;;;;;;;;;;7.90;1.00;;;;;;10377031;28;84134;-60
